sensor_id;sensor_type;location;lat;lon;timestamp;P1;durP1;ratioP1;P2;durP2;ratioP2
1000;SDS011;489;47.806;12.858;2023-07-16T00:01:24;5.65;;;5.25;;
1000;SDS011;489;47.806;12.858;2023-07-16T00:03:27;5.40;;;4.90;;
1000;SDS011;489;47.806;12.858;2023-07-16T00:05:29;4.82;;;4.43;;
1000;SDS011;489;47.806;12.858;2023-07-16T00:07:31;4.60;;;4.30;;
1000;SDS011;489;47.806;12.858;2023-07-16T00:09:33;4.15;;;3.85;;
1000;SDS011;489;47.806;12.858;2023-07-16T00:11:35;4.18;;;3.88;;
1000;SDS011;489;47.806;12.858;2023-07-16T00:13:37;4.38;;;3.70;;
1000;SDS011;489;47.806;12.858;2023-07-16T00:15:39;3.67;;;3.47;;
1000;SDS011;489;47.806;12.858;2023-07-16T00:17:42;4.25;;;3.85;;
1000;SDS011;489;47.806;12.858;2023-07-16T00:19:44;3.78;;;3.47;;
1000;SDS011;489;47.806;12.858;2023-07-16T00:21:46;4.78;;;4.38;;
1000;SDS011;489;47.806;12.858;2023-07-16T00:23:48;4.03;;;3.63;;
1000;SDS011;489;47.806;12.858;2023-07-16T00:25:50;3.47;;;3.28;;
1000;SDS011;489;47.806;12.858;2023-07-16T00:27:52;4.00;;;3.65;;
1000;SDS011;489;47.806;12.858;2023-07-16T00:29:53;3.50;;;3.30;;
1000;SDS011;489;47.806;12.858;2023-07-16T00:31:55;3.83;;;3.17;;
1000;SDS011;489;47.806;12.858;2023-07-16T00:33:58;3.80;;;3.60;;
1000;SDS011;489;47.806;12.858;2023-07-16T00:36:01;4.22;;;3.92;;
1000;SDS011;489;47.806;12.858;2023-07-16T00:38:03;4.35;;;4.05;;
1000;SDS011;489;47.806;12.858;2023-07-16T00:40:05;4.05;;;3.75;;
1000;SDS011;489;47.806;12.858;2023-07-16T00:42:09;5.53;;;3.50;;
1000;SDS011;489;47.806;12.858;2023-07-16T00:44:11;3.97;;;3.67;;
1000;SDS011;489;47.806;12.858;2023-07-16T00:46:13;4.20;;;3.80;;
1000;SDS011;489;47.806;12.858;2023-07-16T00:48:15;4.47;;;4.18;;
1000;SDS011;489;47.806;12.858;2023-07-16T00:50:19;5.93;;;3.80;;
1000;SDS011;489;47.806;12.858;2023-07-16T00:52:21;4.20;;;3.80;;
1000;SDS011;489;47.806;12.858;2023-07-16T00:54:23;4.60;;;4.20;;
1000;SDS011;489;47.806;12.858;2023-07-16T00:56:26;4.50;;;4.20;;
1000;SDS011;489;47.806;12.858;2023-07-16T00:58:28;6.43;;;4.70;;
1000;SDS011;489;47.806;12.858;2023-07-16T01:00:30;7.82;;;4.82;;
1000;SDS011;489;47.806;12.858;2023-07-16T01:02:31;7.35;;;5.20;;
1000;SDS011;489;47.806;12.858;2023-07-16T01:04:33;19.30;;;6.65;;
1000;SDS011;489;47.806;12.858;2023-07-16T01:06:36;5.72;;;4.80;;
1000;SDS011;489;47.806;12.858;2023-07-16T01:08:45;5.95;;;4.93;;
1000;SDS011;489;47.806;12.858;2023-07-16T01:10:48;6.05;;;4.78;;
1000;SDS011;489;47.806;12.858;2023-07-16T01:12:50;5.40;;;5.00;;
1000;SDS011;489;47.806;12.858;2023-07-16T01:14:53;5.68;;;5.22;;
1000;SDS011;489;47.806;12.858;2023-07-16T01:16:54;5.05;;;4.65;;
1000;SDS011;489;47.806;12.858;2023-07-16T01:18:59;6.13;;;4.82;;
1000;SDS011;489;47.806;12.858;2023-07-16T01:21:01;5.03;;;4.57;;
1000;SDS011;489;47.806;12.858;2023-07-16T01:23:26;4.85;;;4.45;;
1000;SDS011;489;47.806;12.858;2023-07-16T01:25:43;5.07;;;4.68;;
1000;SDS011;489;47.806;12.858;2023-07-16T01:28:05;4.78;;;4.25;;
1000;SDS011;489;47.806;12.858;2023-07-16T01:30:13;4.80;;;4.40;;
1000;SDS011;489;47.806;12.858;2023-07-16T01:32:16;4.82;;;4.40;;
1000;SDS011;489;47.806;12.858;2023-07-16T01:34:19;4.50;;;4.15;;
1000;SDS011;489;47.806;12.858;2023-07-16T01:36:20;5.65;;;5.18;;
1000;SDS011;489;47.806;12.858;2023-07-16T01:38:23;4.55;;;4.15;;
1000;SDS011;489;47.806;12.858;2023-07-16T01:40:25;3.92;;;3.63;;
1000;SDS011;489;47.806;12.858;2023-07-16T01:42:27;4.10;;;3.80;;
1000;SDS011;489;47.806;12.858;2023-07-16T01:44:29;4.83;;;4.47;;
1000;SDS011;489;47.806;12.858;2023-07-16T01:46:32;5.30;;;4.43;;
1000;SDS011;489;47.806;12.858;2023-07-16T01:48:34;4.97;;;4.57;;
1000;SDS011;489;47.806;12.858;2023-07-16T01:50:36;4.05;;;3.75;;
1000;SDS011;489;47.806;12.858;2023-07-16T01:52:57;4.30;;;3.70;;
1000;SDS011;489;47.806;12.858;2023-07-16T01:54:59;4.47;;;4.03;;
1000;SDS011;489;47.806;12.858;2023-07-16T01:57:01;4.32;;;4.03;;
1000;SDS011;489;47.806;12.858;2023-07-16T01:59:03;4.45;;;4.05;;
1000;SDS011;489;47.806;12.858;2023-07-16T02:01:05;4.60;;;4.20;;
1000;SDS011;489;47.806;12.858;2023-07-16T02:03:09;4.57;;;4.28;;
1000;SDS011;489;47.806;12.858;2023-07-16T02:05:11;4.88;;;4.47;;
1000;SDS011;489;47.806;12.858;2023-07-16T02:07:13;4.15;;;3.85;;
1000;SDS011;489;47.806;12.858;2023-07-16T02:09:14;16.33;;;4.93;;
1000;SDS011;489;47.806;12.858;2023-07-16T02:11:16;5.93;;;4.57;;
1000;SDS011;489;47.806;12.858;2023-07-16T02:13:19;5.20;;;4.80;;
1000;SDS011;489;47.806;12.858;2023-07-16T02:15:21;5.55;;;4.60;;
1000;SDS011;489;47.806;12.858;2023-07-16T02:17:21;4.67;;;4.27;;
1000;SDS011;489;47.806;12.858;2023-07-16T02:19:25;5.72;;;4.72;;
1000;SDS011;489;47.806;12.858;2023-07-16T02:21:29;4.93;;;4.38;;
1000;SDS011;489;47.806;12.858;2023-07-16T02:23:32;4.47;;;4.18;;
1000;SDS011;489;47.806;12.858;2023-07-16T02:25:34;4.50;;;4.10;;
1000;SDS011;489;47.806;12.858;2023-07-16T02:27:36;8.70;;;4.05;;
1000;SDS011;489;47.806;12.858;2023-07-16T02:29:38;4.88;;;4.50;;
1000;SDS011;489;47.806;12.858;2023-07-16T02:31:40;4.80;;;4.40;;
1000;SDS011;489;47.806;12.858;2023-07-16T02:33:43;4.60;;;4.13;;
1000;SDS011;489;47.806;12.858;2023-07-16T02:35:48;4.80;;;4.40;;
1000;SDS011;489;47.806;12.858;2023-07-16T02:37:52;5.25;;;4.75;;
1000;SDS011;489;47.806;12.858;2023-07-16T02:39:55;4.65;;;4.20;;
1000;SDS011;489;47.806;12.858;2023-07-16T02:41:57;4.20;;;3.90;;
1000;SDS011;489;47.806;12.858;2023-07-16T02:44:00;4.40;;;4.10;;
1000;SDS011;489;47.806;12.858;2023-07-16T02:46:01;5.63;;;4.28;;
1000;SDS011;489;47.806;12.858;2023-07-16T02:48:04;4.88;;;4.40;;
1000;SDS011;489;47.806;12.858;2023-07-16T02:50:07;4.60;;;4.30;;
1000;SDS011;489;47.806;12.858;2023-07-16T02:52:10;4.63;;;4.22;;
1000;SDS011;489;47.806;12.858;2023-07-16T02:54:12;5.50;;;4.95;;
1000;SDS011;489;47.806;12.858;2023-07-16T02:56:14;4.95;;;3.92;;
1000;SDS011;489;47.806;12.858;2023-07-16T02:58:16;5.93;;;5.53;;
1000;SDS011;489;47.806;12.858;2023-07-16T03:00:19;7.53;;;4.15;;
1000;SDS011;489;47.806;12.858;2023-07-16T03:02:20;4.57;;;4.28;;
1000;SDS011;489;47.806;12.858;2023-07-16T03:04:23;4.53;;;4.22;;
1000;SDS011;489;47.806;12.858;2023-07-16T03:06:26;4.78;;;4.38;;
1000;SDS011;489;47.806;12.858;2023-07-16T03:08:30;5.38;;;4.45;;
1000;SDS011;489;47.806;12.858;2023-07-16T03:10:31;4.43;;;4.10;;
1000;SDS011;489;47.806;12.858;2023-07-16T03:12:33;4.57;;;4.23;;
1000;SDS011;489;47.806;12.858;2023-07-16T03:14:34;4.93;;;4.53;;
1000;SDS011;489;47.806;12.858;2023-07-16T03:16:36;4.27;;;3.97;;
1000;SDS011;489;47.806;12.858;2023-07-16T03:18:38;4.68;;;4.28;;
1000;SDS011;489;47.806;12.858;2023-07-16T03:20:42;4.23;;;3.93;;
1000;SDS011;489;47.806;12.858;2023-07-16T03:22:44;5.63;;;4.17;;
1000;SDS011;489;47.806;12.858;2023-07-16T03:24:47;5.00;;;4.50;;
1000;SDS011;489;47.806;12.858;2023-07-16T03:26:49;5.10;;;4.70;;
1000;SDS011;489;47.806;12.858;2023-07-16T03:28:51;4.32;;;3.97;;
1000;SDS011;489;47.806;12.858;2023-07-16T03:30:53;4.60;;;4.20;;
1000;SDS011;489;47.806;12.858;2023-07-16T03:32:55;4.25;;;3.95;;
1000;SDS011;489;47.806;12.858;2023-07-16T03:34:59;3.63;;;3.43;;
1000;SDS011;489;47.806;12.858;2023-07-16T03:37:01;4.10;;;3.80;;
1000;SDS011;489;47.806;12.858;2023-07-16T03:39:05;4.75;;;4.28;;
1000;SDS011;489;47.806;12.858;2023-07-16T03:41:09;4.73;;;4.27;;
1000;SDS011;489;47.806;12.858;2023-07-16T03:43:11;4.83;;;4.27;;
1000;SDS011;489;47.806;12.858;2023-07-16T03:45:13;4.60;;;4.10;;
1000;SDS011;489;47.806;12.858;2023-07-16T03:47:16;4.00;;;3.70;;
1000;SDS011;489;47.806;12.858;2023-07-16T03:49:18;4.87;;;4.07;;
1000;SDS011;489;47.806;12.858;2023-07-16T03:51:19;4.30;;;3.90;;
1000;SDS011;489;47.806;12.858;2023-07-16T03:53:21;4.25;;;3.85;;
1000;SDS011;489;47.806;12.858;2023-07-16T03:55:23;4.30;;;4.00;;
1000;SDS011;489;47.806;12.858;2023-07-16T03:57:26;3.88;;;3.58;;
1000;SDS011;489;47.806;12.858;2023-07-16T03:59:29;5.85;;;4.10;;
1000;SDS011;489;47.806;12.858;2023-07-16T04:01:31;4.20;;;3.90;;
1000;SDS011;489;47.806;12.858;2023-07-16T04:03:33;4.80;;;4.40;;
1000;SDS011;489;47.806;12.858;2023-07-16T04:05:35;5.50;;;4.40;;
1000;SDS011;489;47.806;12.858;2023-07-16T04:07:37;4.72;;;4.30;;
1000;SDS011;489;47.806;12.858;2023-07-16T04:09:39;4.22;;;3.90;;
1000;SDS011;489;47.806;12.858;2023-07-16T04:12:03;4.63;;;4.28;;
1000;SDS011;489;47.806;12.858;2023-07-16T04:14:07;4.47;;;4.07;;
1000;SDS011;489;47.806;12.858;2023-07-16T04:16:09;4.32;;;4.03;;
1000;SDS011;489;47.806;12.858;2023-07-16T04:18:11;4.80;;;4.40;;
1000;SDS011;489;47.806;12.858;2023-07-16T04:20:13;4.68;;;4.28;;
1000;SDS011;489;47.806;12.858;2023-07-16T04:22:15;4.20;;;3.83;;
1000;SDS011;489;47.806;12.858;2023-07-16T04:24:17;5.87;;;4.13;;
1000;SDS011;489;47.806;12.858;2023-07-16T04:26:19;4.72;;;4.32;;
1000;SDS011;489;47.806;12.858;2023-07-16T04:28:21;4.87;;;4.47;;
1000;SDS011;489;47.806;12.858;2023-07-16T04:30:25;4.45;;;4.00;;
1000;SDS011;489;47.806;12.858;2023-07-16T04:32:27;3.60;;;3.30;;
1000;SDS011;489;47.806;12.858;2023-07-16T04:34:29;4.10;;;3.80;;
1000;SDS011;489;47.806;12.858;2023-07-16T04:36:31;3.67;;;3.47;;
1000;SDS011;489;47.806;12.858;2023-07-16T04:38:33;4.77;;;4.47;;
1000;SDS011;489;47.806;12.858;2023-07-16T04:40:34;4.28;;;3.97;;
1000;SDS011;489;47.806;12.858;2023-07-16T04:42:36;3.50;;;3.30;;
1000;SDS011;489;47.806;12.858;2023-07-16T04:44:39;4.90;;;4.50;;
1000;SDS011;489;47.806;12.858;2023-07-16T04:46:42;4.67;;;4.20;;
1000;SDS011;489;47.806;12.858;2023-07-16T04:48:44;3.73;;;3.43;;
1000;SDS011;489;47.806;12.858;2023-07-16T04:50:46;4.50;;;4.10;;
1000;SDS011;489;47.806;12.858;2023-07-16T04:52:48;3.87;;;3.57;;
1000;SDS011;489;47.806;12.858;2023-07-16T04:54:50;5.03;;;4.50;;
1000;SDS011;489;47.806;12.858;2023-07-16T04:56:52;5.90;;;3.63;;
1000;SDS011;489;47.806;12.858;2023-07-16T04:58:54;4.40;;;4.05;;
1000;SDS011;489;47.806;12.858;2023-07-16T05:00:56;3.90;;;3.63;;
1000;SDS011;489;47.806;12.858;2023-07-16T05:02:59;4.43;;;4.03;;
1000;SDS011;489;47.806;12.858;2023-07-16T05:05:01;3.63;;;3.43;;
1000;SDS011;489;47.806;12.858;2023-07-16T05:07:04;4.83;;;4.43;;
1000;SDS011;489;47.806;12.858;2023-07-16T05:09:06;4.63;;;4.23;;
1000;SDS011;489;47.806;12.858;2023-07-16T05:11:08;4.70;;;4.30;;
1000;SDS011;489;47.806;12.858;2023-07-16T05:13:08;4.40;;;4.10;;
1000;SDS011;489;47.806;12.858;2023-07-16T05:15:11;4.33;;;4.03;;
1000;SDS011;489;47.806;12.858;2023-07-16T05:17:13;4.50;;;4.20;;
1000;SDS011;489;47.806;12.858;2023-07-16T05:19:17;4.63;;;4.20;;
1000;SDS011;489;47.806;12.858;2023-07-16T05:21:18;4.57;;;4.17;;
1000;SDS011;489;47.806;12.858;2023-07-16T05:23:20;4.95;;;4.40;;
1000;SDS011;489;47.806;12.858;2023-07-16T05:25:23;5.07;;;4.37;;
1000;SDS011;489;47.806;12.858;2023-07-16T05:27:25;4.73;;;4.23;;
1000;SDS011;489;47.806;12.858;2023-07-16T05:29:26;4.70;;;4.40;;
1000;SDS011;489;47.806;12.858;2023-07-16T05:31:27;4.82;;;4.40;;
1000;SDS011;489;47.806;12.858;2023-07-16T05:33:29;4.77;;;4.37;;
1000;SDS011;489;47.806;12.858;2023-07-16T05:35:33;5.50;;;4.70;;
1000;SDS011;489;47.806;12.858;2023-07-16T05:37:35;4.83;;;4.47;;
1000;SDS011;489;47.806;12.858;2023-07-16T05:39:37;4.57;;;4.27;;
1000;SDS011;489;47.806;12.858;2023-07-16T05:41:39;4.63;;;4.33;;
1000;SDS011;489;47.806;12.858;2023-07-16T05:43:41;4.97;;;4.60;;
1000;SDS011;489;47.806;12.858;2023-07-16T05:45:43;4.40;;;4.00;;
1000;SDS011;489;47.806;12.858;2023-07-16T05:47:45;4.73;;;4.43;;
1000;SDS011;489;47.806;12.858;2023-07-16T05:49:47;4.00;;;3.70;;
1000;SDS011;489;47.806;12.858;2023-07-16T05:51:51;5.00;;;4.60;;
1000;SDS011;489;47.806;12.858;2023-07-16T05:53:53;4.40;;;4.10;;
1000;SDS011;489;47.806;12.858;2023-07-16T05:55:55;4.60;;;4.30;;
1000;SDS011;489;47.806;12.858;2023-07-16T05:57:56;4.63;;;4.30;;
1000;SDS011;489;47.806;12.858;2023-07-16T05:59:58;5.33;;;4.83;;
1000;SDS011;489;47.806;12.858;2023-07-16T06:02:00;4.80;;;4.30;;
1000;SDS011;489;47.806;12.858;2023-07-16T06:04:02;5.20;;;4.80;;
1000;SDS011;489;47.806;12.858;2023-07-16T06:06:04;6.40;;;4.57;;
1000;SDS011;489;47.806;12.858;2023-07-16T06:08:08;5.00;;;4.60;;
1000;SDS011;489;47.806;12.858;2023-07-16T06:10:10;5.00;;;4.60;;
1000;SDS011;489;47.806;12.858;2023-07-16T06:12:12;5.33;;;4.70;;
1000;SDS011;489;47.806;12.858;2023-07-16T06:14:13;3.90;;;3.70;;
1000;SDS011;489;47.806;12.858;2023-07-16T06:16:15;5.20;;;4.70;;
1000;SDS011;489;47.806;12.858;2023-07-16T06:18:17;5.10;;;4.60;;
1000;SDS011;489;47.806;12.858;2023-07-16T06:20:19;5.35;;;5.05;;
1000;SDS011;489;47.806;12.858;2023-07-16T06:22:21;4.77;;;4.47;;
1000;SDS011;489;47.806;12.858;2023-07-16T06:24:24;5.30;;;4.90;;
1000;SDS011;489;47.806;12.858;2023-07-16T06:26:26;6.10;;;4.70;;
1000;SDS011;489;47.806;12.858;2023-07-16T06:28:32;6.10;;;4.60;;
1000;SDS011;489;47.806;12.858;2023-07-16T06:30:34;4.10;;;3.90;;
1000;SDS011;489;47.806;12.858;2023-07-16T06:32:36;4.97;;;4.57;;
1000;SDS011;489;47.806;12.858;2023-07-16T06:34:37;4.27;;;3.97;;
1000;SDS011;489;47.806;12.858;2023-07-16T06:36:39;4.30;;;3.90;;
1000;SDS011;489;47.806;12.858;2023-07-16T06:38:41;4.57;;;4.17;;
1000;SDS011;489;47.806;12.858;2023-07-16T06:40:47;5.37;;;4.40;;
1000;SDS011;489;47.806;12.858;2023-07-16T06:42:50;4.53;;;4.22;;
1000;SDS011;489;47.806;12.858;2023-07-16T06:44:53;4.77;;;4.27;;
1000;SDS011;489;47.806;12.858;2023-07-16T06:46:55;5.60;;;5.13;;
1000;SDS011;489;47.806;12.858;2023-07-16T06:48:58;5.10;;;4.70;;
1000;SDS011;489;47.806;12.858;2023-07-16T06:51:00;5.40;;;5.00;;
1000;SDS011;489;47.806;12.858;2023-07-16T06:53:02;6.43;;;5.30;;
1000;SDS011;489;47.806;12.858;2023-07-16T06:55:04;5.53;;;5.00;;
1000;SDS011;489;47.806;12.858;2023-07-16T06:57:08;5.50;;;5.10;;
1000;SDS011;489;47.806;12.858;2023-07-16T06:59:10;5.07;;;4.67;;
1000;SDS011;489;47.806;12.858;2023-07-16T07:01:12;5.27;;;4.87;;
1000;SDS011;489;47.806;12.858;2023-07-16T07:03:14;5.35;;;4.88;;
1000;SDS011;489;47.806;12.858;2023-07-16T07:05:16;5.13;;;4.70;;
1000;SDS011;489;47.806;12.858;2023-07-16T07:07:18;5.50;;;5.00;;
1000;SDS011;489;47.806;12.858;2023-07-16T07:09:20;5.57;;;5.17;;
1000;SDS011;489;47.806;12.858;2023-07-16T07:11:22;6.20;;;5.70;;
1000;SDS011;489;47.806;12.858;2023-07-16T07:13:25;4.63;;;4.33;;
1000;SDS011;489;47.806;12.858;2023-07-16T07:15:29;5.10;;;4.67;;
1000;SDS011;489;47.806;12.858;2023-07-16T07:17:31;6.13;;;5.63;;
1000;SDS011;489;47.806;12.858;2023-07-16T07:19:33;5.87;;;5.40;;
1000;SDS011;489;47.806;12.858;2023-07-16T07:21:35;5.70;;;5.20;;
1000;SDS011;489;47.806;12.858;2023-07-16T07:23:37;5.30;;;4.90;;
1000;SDS011;489;47.806;12.858;2023-07-16T07:25:38;5.13;;;4.73;;
1000;SDS011;489;47.806;12.858;2023-07-16T07:27:40;5.38;;;4.97;;
1000;SDS011;489;47.806;12.858;2023-07-16T07:29:43;4.97;;;4.65;;
1000;SDS011;489;47.806;12.858;2023-07-16T07:31:46;5.13;;;4.73;;
1000;SDS011;489;47.806;12.858;2023-07-16T07:33:48;4.77;;;4.37;;
1000;SDS011;489;47.806;12.858;2023-07-16T07:35:52;4.73;;;4.33;;
1000;SDS011;489;47.806;12.858;2023-07-16T07:37:54;6.03;;;5.50;;
1000;SDS011;489;47.806;12.858;2023-07-16T07:39:58;5.50;;;4.93;;
1000;SDS011;489;47.806;12.858;2023-07-16T07:42:00;5.33;;;4.93;;
1000;SDS011;489;47.806;12.858;2023-07-16T07:44:02;5.65;;;5.15;;
1000;SDS011;489;47.806;12.858;2023-07-16T07:46:05;5.30;;;4.90;;
1000;SDS011;489;47.806;12.858;2023-07-16T07:48:07;5.05;;;4.63;;
1000;SDS011;489;47.806;12.858;2023-07-16T07:50:09;5.30;;;4.90;;
1000;SDS011;489;47.806;12.858;2023-07-16T07:52:11;5.27;;;4.87;;
1000;SDS011;489;47.806;12.858;2023-07-16T07:54:13;5.60;;;5.20;;
1000;SDS011;489;47.806;12.858;2023-07-16T07:56:15;5.43;;;5.03;;
1000;SDS011;489;47.806;12.858;2023-07-16T07:58:17;4.73;;;4.43;;
1000;SDS011;489;47.806;12.858;2023-07-16T08:00:19;6.03;;;5.53;;
1000;SDS011;489;47.806;12.858;2023-07-16T08:02:23;5.20;;;4.80;;
1000;SDS011;489;47.806;12.858;2023-07-16T08:04:25;4.30;;;4.00;;
1000;SDS011;489;47.806;12.858;2023-07-16T08:06:26;5.43;;;4.93;;
1000;SDS011;489;47.806;12.858;2023-07-16T08:08:28;5.73;;;5.33;;
1000;SDS011;489;47.806;12.858;2023-07-16T08:10:30;6.10;;;5.63;;
1000;SDS011;489;47.806;12.858;2023-07-16T08:12:32;5.50;;;5.10;;
1000;SDS011;489;47.806;12.858;2023-07-16T08:14:34;5.63;;;5.13;;
1000;SDS011;489;47.806;12.858;2023-07-16T08:16:36;6.00;;;5.40;;
1000;SDS011;489;47.806;12.858;2023-07-16T08:18:40;6.37;;;5.67;;
1000;SDS011;489;47.806;12.858;2023-07-16T08:20:42;5.27;;;4.83;;
1000;SDS011;489;47.806;12.858;2023-07-16T08:22:44;5.85;;;5.35;;
1000;SDS011;489;47.806;12.858;2023-07-16T08:24:46;4.72;;;4.40;;
1000;SDS011;489;47.806;12.858;2023-07-16T08:26:48;5.40;;;5.00;;
1000;SDS011;489;47.806;12.858;2023-07-16T08:28:50;5.43;;;5.03;;
1000;SDS011;489;47.806;12.858;2023-07-16T08:30:53;4.80;;;4.30;;
1000;SDS011;489;47.806;12.858;2023-07-16T08:32:55;3.83;;;3.63;;
1000;SDS011;489;47.806;12.858;2023-07-16T08:34:58;4.38;;;3.97;;
1000;SDS011;489;47.806;12.858;2023-07-16T08:37:00;4.47;;;4.07;;
1000;SDS011;489;47.806;12.858;2023-07-16T08:39:02;3.70;;;3.40;;
1000;SDS011;489;47.806;12.858;2023-07-16T08:41:04;3.75;;;3.45;;
1000;SDS011;489;47.806;12.858;2023-07-16T08:43:06;3.72;;;3.53;;
1000;SDS011;489;47.806;12.858;2023-07-16T08:45:09;3.65;;;3.45;;
1000;SDS011;489;47.806;12.858;2023-07-16T08:47:11;3.95;;;3.65;;
1000;SDS011;489;47.806;12.858;2023-07-16T08:49:13;3.50;;;3.30;;
1000;SDS011;489;47.806;12.858;2023-07-16T08:51:20;5.07;;;3.72;;
1000;SDS011;489;47.806;12.858;2023-07-16T08:53:23;3.65;;;3.40;;
1000;SDS011;489;47.806;12.858;2023-07-16T08:55:26;3.80;;;3.60;;
1000;SDS011;489;47.806;12.858;2023-07-16T08:57:28;3.90;;;3.60;;
1000;SDS011;489;47.806;12.858;2023-07-16T08:59:33;4.38;;;3.97;;
1000;SDS011;489;47.806;12.858;2023-07-16T09:01:35;4.47;;;4.18;;
1000;SDS011;489;47.806;12.858;2023-07-16T09:03:38;3.67;;;3.40;;
1000;SDS011;489;47.806;12.858;2023-07-16T09:05:40;3.65;;;3.35;;
1000;SDS011;489;47.806;12.858;2023-07-16T09:07:43;3.70;;;3.47;;
1000;SDS011;489;47.806;12.858;2023-07-16T09:09:54;3.40;;;3.20;;
1000;SDS011;489;47.806;12.858;2023-07-16T09:11:58;3.13;;;2.92;;
1000;SDS011;489;47.806;12.858;2023-07-16T09:14:01;3.58;;;3.28;;
1000;SDS011;489;47.806;12.858;2023-07-16T09:16:03;2.35;;;2.25;;
1000;SDS011;489;47.806;12.858;2023-07-16T09:18:05;2.90;;;2.70;;
1000;SDS011;489;47.806;12.858;2023-07-16T09:20:08;2.58;;;2.38;;
1000;SDS011;489;47.806;12.858;2023-07-16T09:22:10;2.50;;;2.40;;
1000;SDS011;489;47.806;12.858;2023-07-16T09:24:14;3.00;;;2.80;;
1000;SDS011;489;47.806;12.858;2023-07-16T09:26:16;2.55;;;2.45;;
1000;SDS011;489;47.806;12.858;2023-07-16T09:28:18;2.47;;;2.38;;
1000;SDS011;489;47.806;12.858;2023-07-16T09:30:19;3.25;;;2.95;;
1000;SDS011;489;47.806;12.858;2023-07-16T09:32:21;3.35;;;3.05;;
1000;SDS011;489;47.806;12.858;2023-07-16T09:34:23;2.95;;;2.75;;
1000;SDS011;489;47.806;12.858;2023-07-16T09:36:25;3.00;;;2.80;;
1000;SDS011;489;47.806;12.858;2023-07-16T09:38:27;3.65;;;3.40;;
1000;SDS011;489;47.806;12.858;2023-07-16T09:40:30;2.90;;;2.70;;
1000;SDS011;489;47.806;12.858;2023-07-16T09:42:32;3.28;;;3.08;;
1000;SDS011;489;47.806;12.858;2023-07-16T09:44:35;3.15;;;2.85;;
1000;SDS011;489;47.806;12.858;2023-07-16T09:46:37;2.70;;;2.60;;
1000;SDS011;489;47.806;12.858;2023-07-16T09:48:39;3.05;;;2.85;;
1000;SDS011;489;47.806;12.858;2023-07-16T09:50:43;3.10;;;2.90;;
1000;SDS011;489;47.806;12.858;2023-07-16T09:52:51;3.70;;;3.50;;
1000;SDS011;489;47.806;12.858;2023-07-16T09:54:53;3.35;;;3.15;;
1000;SDS011;489;47.806;12.858;2023-07-16T09:56:58;3.00;;;2.90;;
1000;SDS011;489;47.806;12.858;2023-07-16T09:59:01;3.40;;;3.10;;
1000;SDS011;489;47.806;12.858;2023-07-16T10:01:04;3.10;;;2.90;;
1000;SDS011;489;47.806;12.858;2023-07-16T10:03:07;3.38;;;3.08;;
1000;SDS011;489;47.806;12.858;2023-07-16T10:05:12;3.10;;;2.90;;
1000;SDS011;489;47.806;12.858;2023-07-16T10:07:19;3.30;;;3.10;;
1000;SDS011;489;47.806;12.858;2023-07-16T10:09:34;3.10;;;2.90;;
1000;SDS011;489;47.806;12.858;2023-07-16T10:11:37;3.00;;;2.80;;
1000;SDS011;489;47.806;12.858;2023-07-16T10:13:40;2.60;;;2.47;;
1000;SDS011;489;47.806;12.858;2023-07-16T10:15:51;2.05;;;1.95;;
1000;SDS011;489;47.806;12.858;2023-07-16T10:17:54;2.75;;;2.55;;
1000;SDS011;489;47.806;12.858;2023-07-16T10:19:58;3.22;;;3.03;;
1000;SDS011;489;47.806;12.858;2023-07-16T10:22:01;2.88;;;2.67;;
1000;SDS011;489;47.806;12.858;2023-07-16T10:24:02;2.33;;;2.22;;
1000;SDS011;489;47.806;12.858;2023-07-16T10:26:08;2.80;;;2.60;;
1000;SDS011;489;47.806;12.858;2023-07-16T10:28:10;2.72;;;2.53;;
1000;SDS011;489;47.806;12.858;2023-07-16T10:30:13;2.55;;;2.35;;
1000;SDS011;489;47.806;12.858;2023-07-16T10:32:15;2.80;;;2.60;;
1000;SDS011;489;47.806;12.858;2023-07-16T10:34:17;2.47;;;2.38;;
1000;SDS011;489;47.806;12.858;2023-07-16T10:36:24;3.55;;;3.28;;
1000;SDS011;489;47.806;12.858;2023-07-16T10:38:26;3.28;;;3.08;;
1000;SDS011;489;47.806;12.858;2023-07-16T10:40:28;3.17;;;2.97;;
1000;SDS011;489;47.806;12.858;2023-07-16T10:42:31;3.03;;;2.83;;
1000;SDS011;489;47.806;12.858;2023-07-16T10:44:33;3.63;;;3.33;;
1000;SDS011;489;47.806;12.858;2023-07-16T10:46:37;3.72;;;3.53;;
1000;SDS011;489;47.806;12.858;2023-07-16T10:48:45;3.13;;;2.92;;
1000;SDS011;489;47.806;12.858;2023-07-16T10:50:52;2.92;;;2.72;;
1000;SDS011;489;47.806;12.858;2023-07-16T10:52:55;3.25;;;3.05;;
1000;SDS011;489;47.806;12.858;2023-07-16T10:54:57;2.90;;;2.70;;
1000;SDS011;489;47.806;12.858;2023-07-16T10:56:59;3.03;;;2.88;;
1000;SDS011;489;47.806;12.858;2023-07-16T10:59:01;3.33;;;3.13;;
1000;SDS011;489;47.806;12.858;2023-07-16T11:01:03;3.58;;;3.38;;
1000;SDS011;489;47.806;12.858;2023-07-16T11:03:06;3.78;;;3.53;;
1000;SDS011;489;47.806;12.858;2023-07-16T11:05:09;3.28;;;3.03;;
1000;SDS011;489;47.806;12.858;2023-07-16T11:07:12;3.63;;;3.42;;
1000;SDS011;489;47.806;12.858;2023-07-16T11:09:14;2.80;;;2.60;;
1000;SDS011;489;47.806;12.858;2023-07-16T11:11:15;3.40;;;3.08;;
1000;SDS011;489;47.806;12.858;2023-07-16T11:13:17;3.33;;;3.10;;
1000;SDS011;489;47.806;12.858;2023-07-16T11:15:29;3.25;;;3.05;;
1000;SDS011;489;47.806;12.858;2023-07-16T11:17:32;3.40;;;3.17;;
1000;SDS011;489;47.806;12.858;2023-07-16T11:19:35;3.53;;;3.22;;
1000;SDS011;489;47.806;12.858;2023-07-16T11:21:38;3.58;;;3.38;;
1000;SDS011;489;47.806;12.858;2023-07-16T11:23:40;2.72;;;2.63;;
1000;SDS011;489;47.806;12.858;2023-07-16T11:25:45;3.75;;;3.55;;
1000;SDS011;489;47.806;12.858;2023-07-16T11:27:47;3.92;;;3.53;;
1000;SDS011;489;47.806;12.858;2023-07-16T11:29:50;3.20;;;3.00;;
1000;SDS011;489;47.806;12.858;2023-07-16T11:31:53;3.75;;;3.45;;
1000;SDS011;489;47.806;12.858;2023-07-16T11:33:59;3.88;;;3.60;;
1000;SDS011;489;47.806;12.858;2023-07-16T11:36:03;3.50;;;3.30;;
1000;SDS011;489;47.806;12.858;2023-07-16T11:38:05;3.75;;;3.45;;
1000;SDS011;489;47.806;12.858;2023-07-16T11:40:08;3.65;;;3.35;;
1000;SDS011;489;47.806;12.858;2023-07-16T11:42:10;3.80;;;3.50;;
1000;SDS011;489;47.806;12.858;2023-07-16T11:44:13;3.25;;;3.05;;
1000;SDS011;489;47.806;12.858;2023-07-16T11:46:15;4.00;;;3.70;;
1000;SDS011;489;47.806;12.858;2023-07-16T11:48:18;3.75;;;3.45;;
1000;SDS011;489;47.806;12.858;2023-07-16T11:50:20;4.35;;;3.78;;
1000;SDS011;489;47.806;12.858;2023-07-16T11:52:24;4.35;;;4.05;;
1000;SDS011;489;47.806;12.858;2023-07-16T11:54:27;4.22;;;3.95;;
1000;SDS011;489;47.806;12.858;2023-07-16T11:56:29;3.88;;;3.63;;
1000;SDS011;489;47.806;12.858;2023-07-16T11:58:30;4.28;;;3.97;;
1000;SDS011;489;47.806;12.858;2023-07-16T12:00:32;3.63;;;3.42;;
1000;SDS011;489;47.806;12.858;2023-07-16T12:02:34;3.83;;;3.60;;
1000;SDS011;489;47.806;12.858;2023-07-16T12:04:36;3.85;;;3.65;;
1000;SDS011;489;47.806;12.858;2023-07-16T12:06:38;4.18;;;3.90;;
1000;SDS011;489;47.806;12.858;2023-07-16T12:08:41;3.65;;;3.45;;
1000;SDS011;489;47.806;12.858;2023-07-16T12:10:43;3.70;;;3.50;;
1000;SDS011;489;47.806;12.858;2023-07-16T12:12:45;3.28;;;2.97;;
1000;SDS011;489;47.806;12.858;2023-07-16T12:14:47;3.70;;;3.50;;
1000;SDS011;489;47.806;12.858;2023-07-16T12:16:49;3.30;;;3.10;;
1000;SDS011;489;47.806;12.858;2023-07-16T12:18:51;3.33;;;3.13;;
1000;SDS011;489;47.806;12.858;2023-07-16T12:20:53;2.90;;;2.70;;
1000;SDS011;489;47.806;12.858;2023-07-16T12:22:55;3.10;;;2.90;;
1000;SDS011;489;47.806;12.858;2023-07-16T12:24:58;3.25;;;3.05;;
1000;SDS011;489;47.806;12.858;2023-07-16T12:26:59;2.90;;;2.70;;
1000;SDS011;489;47.806;12.858;2023-07-16T12:29:01;3.53;;;3.33;;
1000;SDS011;489;47.806;12.858;2023-07-16T12:31:04;3.33;;;3.13;;
1000;SDS011;489;47.806;12.858;2023-07-16T12:33:05;3.55;;;3.35;;
1000;SDS011;489;47.806;12.858;2023-07-16T12:35:07;2.90;;;2.70;;
1000;SDS011;489;47.806;12.858;2023-07-16T12:37:10;3.97;;;3.55;;
1000;SDS011;489;47.806;12.858;2023-07-16T12:39:12;2.97;;;2.78;;
1000;SDS011;489;47.806;12.858;2023-07-16T12:41:15;3.00;;;2.80;;
1000;SDS011;489;47.806;12.858;2023-07-16T12:43:17;2.95;;;2.75;;